Time;durP1;ratioP1;P1;durP2;ratioP2;P2;SDS_P1;SDS_P2;PMS_P1;PMS_P2;Temp;Humidity;BMP_temperature;BMP_pressure;BME280_temperature;BME280_humidity;BME280_pressure;Samples;Min_cycle;Max_cycle;Signal;HPM_P1;HPM_P2
2021/05/13 00:01:24;;;;;;;6.07;4.28;;;23.10;88.40;;;;;;5074986;28;20052;-85
2021/05/13 00:03:53;;;;;;;6.50;4.63;;;23.10;88.40;;;;;;5092489;28;20069;-84
2021/05/13 00:06:19;;;;;;;6.90;4.95;;;23.10;88.40;;;;;;5093075;28;20031;-85
2021/05/13 00:08:44;;;;;;;6.50;4.85;;;23.10;88.50;;;;;;5074859;28;20020;-84
2021/05/13 00:11:11;;;;;;;6.90;4.97;;;23.10;88.50;;;;;;5092954;28;20453;-85
2021/05/13 00:13:39;;;;;;;6.97;4.38;;;23.10;88.50;;;;;;5074743;28;20035;-87
2021/05/13 00:16:06;;;;;;;5.68;4.65;;;23.10;88.50;;;;;;5092913;28;20043;-85
2021/05/13 00:18:32;;;;;;;9.95;4.78;;;23.10;88.50;;;;;;5076607;28;20056;-85
2021/05/13 00:20:59;;;;;;;7.05;4.85;;;23.10;88.50;;;;;;5079092;28;20081;-84
2021/05/13 00:23:25;;;;;;;6.95;4.57;;;23.10;88.50;;;;;;5078502;28;20108;-85
2021/05/13 00:25:52;;;;;;;9.95;5.93;;;23.10;88.60;;;;;;5084658;28;20024;-86
2021/05/13 00:28:21;;;;;;;8.35;5.35;;;23.10;88.60;;;;;;5082655;28;20016;-86
2021/05/13 00:30:47;;;;;;;7.40;5.13;;;23.10;88.60;;;;;;5096922;28;20085;-86
2021/05/13 00:33:12;;;;;;;6.68;4.90;;;23.10;88.60;;;;;;5062190;28;20028;-86
2021/05/13 00:35:38;;;;;;;7.70;5.20;;;23.10;88.60;;;;;;5096464;28;20080;-86
2021/05/13 00:38:04;;;;;;;7.65;5.30;;;23.10;88.60;;;;;;5096840;28;20455;-85
2021/05/13 00:40:30;;;;;;;8.07;5.55;;;23.10;88.70;;;;;;5096309;28;20471;-85
2021/05/13 00:42:55;;;;;;;7.72;5.35;;;23.10;88.70;;;;;;5078663;28;20024;-86
2021/05/13 00:45:21;;;;;;;7.70;5.20;;;23.10;88.70;;;;;;5078301;28;20466;-86
2021/05/13 00:48:01;;;;;;;7.72;5.35;;;23.10;88.70;;;;;;5062331;28;20020;-86
2021/05/13 00:50:27;;;;;;;7.10;5.63;;;23.10;88.80;;;;;;5078130;28;20059;-86
2021/05/13 00:52:52;;;;;;;8.85;5.78;;;23.10;88.70;;;;;;5078225;28;20063;-86
2021/05/13 00:55:19;;;;;;;8.02;5.60;;;23.10;88.70;;;;;;5078197;28;20031;-86
2021/05/13 00:57:48;;;;;;;7.07;5.22;;;23.10;88.80;;;;;;5061292;28;20028;-86
2021/05/13 01:03:05;;;;;;;8.38;5.43;;;23.10;88.80;;;;;;5057765;28;20036;-85
2021/05/13 01:05:33;;;;;;;7.60;5.25;;;23.10;88.80;;;;;;5095684;28;20020;-86
2021/05/13 01:08:00;;;;;;;7.78;5.38;;;23.10;88.80;;;;;;5096187;28;20055;-85
2021/05/13 01:10:27;;;;;;;7.55;5.20;;;23.10;88.80;;;;;;5077925;28;20039;-86
2021/05/13 01:12:57;;;;;;;7.70;6.03;;;23.10;88.90;;;;;;5045092;28;20020;-85
2021/05/13 01:15:29;;;;;;;8.27;5.40;;;23.10;88.80;;;;;;5078332;28;20020;-86
2021/05/13 01:20:40;;;;;;;6.90;5.68;;;23.00;88.80;;;;;;5095858;28;20492;-85
2021/05/13 01:23:10;;;;;;;7.80;5.60;;;23.10;88.90;;;;;;5095748;28;20024;-85
2021/05/13 01:25:45;;;;;;;9.43;5.93;;;23.00;88.80;;;;;;5078113;28;20024;-85
2021/05/13 01:28:10;;;;;;;7.57;5.55;;;23.10;88.90;;;;;;5095904;28;20024;-85
2021/05/13 01:30:36;;;;;;;8.70;6.30;;;23.00;88.90;;;;;;5078742;28;20102;-85
2021/05/13 01:33:03;;;;;;;6.60;5.45;;;23.00;88.80;;;;;;5047501;28;20430;-84
2021/05/13 01:35:28;;;;;;;9.07;5.80;;;23.10;88.90;;;;;;5060515;28;20047;-85
2021/05/13 01:38:06;;;;;;;8.32;5.78;;;23.10;89.00;;;;;;5077685;28;20056;-84
2021/05/13 01:40:33;;;;;;;9.00;6.05;;;23.00;88.90;;;;;;5077306;28;20416;-85
2021/05/13 01:42:59;;;;;;;9.82;6.40;;;23.00;88.90;;;;;;5060398;28;20465;-85
2021/05/13 01:45:24;;;;;;;8.48;6.22;;;23.10;89.00;;;;;;5095824;28;20116;-84
2021/05/13 01:47:50;;;;;;;8.30;6.50;;;23.00;88.90;;;;;;5095217;28;20424;-84
2021/05/13 01:50:15;;;;;;;9.35;6.55;;;23.00;88.90;;;;;;5095748;28;20075;-85
2021/05/13 01:52:41;;;;;;;8.02;5.85;;;23.00;88.90;;;;;;5095469;28;20024;-85
2021/05/13 01:55:07;;;;;;;7.50;5.95;;;23.00;88.90;;;;;;5095086;28;20024;-84
2021/05/13 01:57:33;;;;;;;9.07;6.13;;;23.10;89.00;;;;;;5076648;28;20032;-86
2021/05/13 01:59:58;;;;;;;8.32;6.32;;;23.10;89.00;;;;;;5077182;28;20157;-85
2021/05/13 02:02:24;;;;;;;9.38;6.90;;;23.00;89.00;;;;;;5077203;28;20365;-85
2021/05/13 02:04:49;;;;;;;8.38;6.00;;;23.00;89.00;;;;;;5076722;28;20035;-85
2021/05/13 02:07:15;;;;;;;7.82;5.82;;;23.00;89.00;;;;;;5077097;28;20406;-85
2021/05/13 02:09:41;;;;;;;8.02;6.30;;;23.00;89.10;;;;;;5094766;28;20470;-85
2021/05/13 02:12:07;;;;;;;9.32;6.30;;;23.00;89.10;;;;;;5094804;28;20213;-85
2021/05/13 02:14:33;;;;;;;8.98;6.65;;;23.00;89.10;;;;;;5076824;28;20024;-85
2021/05/13 02:16:59;;;;;;;8.18;6.10;;;23.00;89.10;;;;;;5076750;28;20487;-85
2021/05/13 02:19:24;;;;;;;7.60;6.43;;;23.00;89.10;;;;;;5094878;28;20419;-85
2021/05/13 02:21:50;;;;;;;7.90;6.35;;;23.00;89.10;;;;;;5076542;28;20538;-85
2021/05/13 02:24:16;;;;;;;7.28;5.68;;;23.00;89.10;;;;;;5094678;28;20028;-85
2021/05/13 02:26:41;;;;;;;7.32;5.82;;;23.00;89.10;;;;;;5094279;28;20031;-85
2021/05/13 02:29:07;;;;;;;8.30;6.78;;;23.00;89.10;;;;;;5094731;28;20402;-85
2021/05/13 02:31:33;;;;;;;8.55;6.38;;;23.00;89.10;;;;;;5094442;28;20078;-85
2021/05/13 02:33:58;;;;;;;10.07;6.90;;;23.00;89.10;;;;;;5059946;28;20119;-85
2021/05/13 02:36:24;;;;;;;8.55;6.75;;;23.00;89.10;;;;;;5059423;28;20048;-85
2021/05/13 02:38:50;;;;;;;7.93;6.50;;;23.00;89.20;;;;;;5059444;28;20507;-85
2021/05/13 02:41:15;;;;;;;9.48;6.70;;;23.00;89.20;;;;;;5094302;28;20036;-85
2021/05/13 02:43:41;;;;;;;9.75;6.63;;;23.00;89.10;;;;;;5075889;28;20069;-85
2021/05/13 02:46:07;;;;;;;9.38;7.05;;;23.00;89.20;;;;;;5076265;28;20401;-85
2021/05/13 02:48:32;;;;;;;8.65;6.78;;;23.00;89.20;;;;;;5094292;28;20048;-85
2021/05/13 02:50:58;;;;;;;9.68;7.20;;;23.00;89.20;;;;;;5076220;28;20039;-85
2021/05/13 02:53:23;;;;;;;8.45;6.47;;;23.00;89.20;;;;;;5076141;28;20028;-85
2021/05/13 02:55:49;;;;;;;8.27;6.35;;;23.00;89.20;;;;;;5094049;28;20024;-86
2021/05/13 02:58:15;;;;;;;8.30;6.47;;;23.00;89.20;;;;;;5075619;28;20052;-85
2021/05/13 03:03:25;;;;;;;7.88;6.50;;;23.00;89.20;;;;;;5064866;28;20107;-85
2021/05/13 03:05:53;;;;;;;8.32;6.90;;;23.00;89.20;;;;;;5058932;28;20432;-85
2021/05/13 03:08:19;;;;;;;9.65;7.65;;;22.90;89.20;;;;;;5059390;28;20062;-85
2021/05/13 03:10:45;;;;;;;9.52;7.20;;;23.00;89.20;;;;;;5075409;28;20442;-85
2021/05/13 03:13:19;;;;;;;9.70;7.40;;;22.90;89.20;;;;;;5059156;28;20024;-84
2021/05/13 03:15:44;;;;;;;8.65;6.47;;;23.00;89.20;;;;;;5093730;28;20024;-85
2021/05/13 03:18:10;;;;;;;8.63;6.88;;;22.90;89.20;;;;;;5075630;28;20029;-85
2021/05/13 03:20:38;;;;;;;8.75;6.90;;;23.00;89.20;;;;;;5093604;28;20107;-85
2021/05/13 03:23:06;;;;;;;9.80;7.45;;;23.00;89.20;;;;;;5076012;28;20016;-85
2021/05/13 03:25:35;;;;;;;9.95;7.13;;;23.00;89.30;;;;;;5075858;28;20102;-85
2021/05/13 03:28:10;;;;;;;8.77;6.82;;;23.00;89.30;;;;;;5092921;28;20517;-85
2021/05/13 03:30:46;;;;;;;9.30;7.03;;;23.00;89.30;;;;;;5076690;28;20036;-84
2021/05/13 03:33:13;;;;;;;9.82;7.70;;;22.90;89.20;;;;;;5093428;28;20019;-84
2021/05/13 03:35:39;;;;;;;8.68;7.00;;;22.90;89.20;;;;;;5092905;28;20065;-85
2021/05/13 03:38:06;;;;;;;8.40;6.63;;;23.00;89.20;;;;;;5075529;28;20047;-85
2021/05/13 03:40:32;;;;;;;8.77;6.47;;;23.00;89.30;;;;;;5093671;28;20031;-84
2021/05/13 03:42:59;;;;;;;7.93;6.38;;;22.90;89.20;;;;;;5058179;28;20031;-85
2021/05/13 03:45:25;;;;;;;9.27;6.95;;;22.90;89.20;;;;;;5093255;28;20028;-85
2021/05/13 03:47:50;;;;;;;9.38;6.90;;;22.90;89.20;;;;;;5092997;28;20024;-85
2021/05/13 03:50:17;;;;;;;9.02;6.63;;;22.90;89.20;;;;;;5092824;28;20124;-84
2021/05/13 03:52:42;;;;;;;10.00;7.00;;;22.90;89.20;;;;;;5074609;28;20023;-85
2021/05/13 03:55:09;;;;;;;10.13;6.88;;;22.90;89.10;;;;;;5093283;28;20567;-85
2021/05/13 03:57:35;;;;;;;7.97;6.03;;;22.90;89.10;;;;;;5093295;28;20073;-85
2021/05/13 04:00:05;;;;;;;9.57;7.07;;;23.00;89.20;;;;;;5092756;28;20035;-85
2021/05/13 04:02:33;;;;;;;9.38;6.95;;;22.90;89.10;;;;;;5093111;28;20101;-85
2021/05/13 04:04:59;;;;;;;8.93;6.75;;;22.90;89.10;;;;;;5075231;28;20107;-85
2021/05/13 04:07:36;;;;;;;8.18;6.68;;;22.90;89.20;;;;;;5093405;28;20027;-85
2021/05/13 04:10:05;;;;;;;8.93;6.60;;;22.90;89.10;;;;;;5074780;28;20036;-85
2021/05/13 04:12:31;;;;;;;8.95;6.72;;;22.90;89.10;;;;;;5075090;28;20024;-85
2021/05/13 04:14:58;;;;;;;9.43;7.15;;;22.90;89.10;;;;;;5074843;28;20073;-85
2021/05/13 04:17:23;;;;;;;8.13;5.90;;;22.90;89.10;;;;;;5058108;28;20094;-85
2021/05/13 04:19:49;;;;;;;8.45;6.25;;;22.90;89.60;;;;;;5075174;28;20465;-85
2021/05/13 04:22:15;;;;;;;7.97;6.20;;;22.90;89.10;;;;;;5092984;28;20024;-85
2021/05/13 04:24:42;;;;;;;8.13;6.45;;;22.90;89.10;;;;;;5075125;28;20028;-85
2021/05/13 04:27:08;;;;;;;8.85;6.60;;;22.90;89.10;;;;;;5092425;28;20373;-85
2021/05/13 04:29:33;;;;;;;8.63;6.75;;;22.90;89.10;;;;;;5074703;28;20054;-85
2021/05/13 04:31:59;;;;;;;8.25;6.28;;;22.90;89.10;;;;;;5074594;28;20031;-85
2021/05/13 04:34:25;;;;;;;9.57;6.72;;;22.90;89.10;;;;;;5058014;28;20028;-85
2021/05/13 04:36:50;;;;;;;7.85;5.80;;;22.90;89.10;;;;;;5092592;28;20101;-85
2021/05/13 04:39:16;;;;;;;6.57;5.82;;;22.90;89.20;;;;;;5075011;28;20063;-85
2021/05/13 04:41:42;;;;;;;7.95;5.90;;;22.90;89.20;;;;;;5092608;28;20028;-85
2021/05/13 04:44:08;;;;;;;7.63;6.10;;;22.90;89.10;;;;;;5074606;28;20097;-85
2021/05/13 04:46:35;;;;;;;7.20;5.82;;;22.90;89.20;;;;;;5044737;28;20024;-84
2021/05/13 04:51:33;;;;;;;8.30;6.07;;;22.90;89.20;;;;;;5078419;28;20534;-86
2021/05/13 04:53:59;;;;;;;7.18;5.90;;;22.90;89.20;;;;;;5076836;28;20441;-85
2021/05/13 04:56:26;;;;;;;7.72;5.90;;;22.90;89.20;;;;;;5092562;28;20061;-85
2021/05/13 04:58:52;;;;;;;7.32;5.93;;;22.90;89.20;;;;;;5057601;28;20028;-86
2021/05/13 05:01:18;;;;;;;7.50;5.82;;;22.90;89.20;;;;;;5092653;28;20020;-87
2021/05/13 05:03:44;;;;;;;6.68;5.15;;;22.90;89.20;;;;;;5057900;28;20366;-87
2021/05/13 05:06:10;;;;;;;7.50;5.63;;;22.90;89.30;;;;;;5077029;28;20028;-85
2021/05/13 05:08:36;;;;;;;6.82;4.97;;;23.00;89.30;;;;;;5078109;28;20024;-85
2021/05/13 05:11:02;;;;;;;5.55;4.85;;;22.90;89.80;;;;;;5095075;28;20044;-85
2021/05/13 05:13:29;;;;;;;6.30;5.20;;;23.00;89.30;;;;;;5095854;28;20480;-86
2021/05/13 05:15:55;;;;;;;7.07;5.82;;;23.00;89.40;;;;;;5096406;28;20024;-84
2021/05/13 05:18:22;;;;;;;6.07;4.70;;;22.90;89.30;;;;;;5078369;28;20056;-86
2021/05/13 05:20:49;;;;;;;6.55;5.07;;;22.90;89.80;;;;;;5095559;28;20343;-87
2021/05/13 05:23:15;;;;;;;6.70;5.40;;;23.00;89.40;;;;;;5077427;28;20465;-85
2021/05/13 05:25:41;;;;;;;6.72;5.32;;;23.00;89.40;;;;;;5077715;28;20043;-85
2021/05/13 05:28:07;;;;;;;6.72;4.70;;;23.00;89.40;;;;;;5077399;28;20032;-85
2021/05/13 05:30:34;;;;;;;6.78;5.10;;;23.00;89.40;;;;;;5077393;28;20032;-85
2021/05/13 05:33:01;;;;;;;7.05;4.82;;;23.00;89.50;;;;;;5095346;28;20519;-85
2021/05/13 05:35:27;;;;;;;5.95;4.65;;;23.00;89.50;;;;;;5077594;28;20024;-85
2021/05/13 05:37:54;;;;;;;5.32;4.45;;;23.00;89.50;;;;;;5077030;28;20093;-86
2021/05/13 05:40:21;;;;;;;5.13;4.32;;;23.00;89.50;;;;;;5095555;28;20054;-85
2021/05/13 05:42:47;;;;;;;5.80;4.55;;;23.00;89.50;;;;;;5077751;28;20031;-85
2021/05/13 05:45:14;;;;;;;6.05;4.60;;;23.00;89.50;;;;;;5077363;28;20426;-85
2021/05/13 05:47:39;;;;;;;5.28;4.47;;;23.00;90.00;;;;;;5077853;28;20163;-85
2021/05/13 05:50:06;;;;;;;5.75;4.07;;;23.00;90.00;;;;;;5077276;28;20536;-85
2021/05/13 05:52:31;;;;;;;6.00;4.57;;;23.00;89.50;;;;;;5094975;28;20066;-85
2021/05/13 05:54:57;;;;;;;5.50;4.30;;;23.10;89.60;;;;;;5076905;28;20047;-85
2021/05/13 05:57:23;;;;;;;4.78;3.97;;;23.10;89.60;;;;;;5077171;28;20570;-85
2021/05/13 05:59:48;;;;;;;5.57;4.03;;;23.10;89.60;;;;;;5095205;28;20024;-85
2021/05/13 06:02:14;;;;;;;5.18;4.30;;;23.10;89.60;;;;;;5076807;28;20492;-85
2021/05/13 06:04:39;;;;;;;4.43;3.60;;;23.10;89.60;;;;;;5060556;28;20024;-86
2021/05/13 06:07:06;;;;;;;4.75;3.85;;;23.10;89.60;;;;;;5094616;28;20449;-86
2021/05/13 06:09:32;;;;;;;4.50;3.72;;;23.10;89.60;;;;;;5060418;28;20106;-87
2021/05/13 06:11:58;;;;;;;4.85;3.70;;;23.10;89.60;;;;;;5076296;28;20024;-85
2021/05/13 06:14:24;;;;;;;4.28;3.38;;;23.10;89.60;;;;;;5095287;28;20106;-85
2021/05/13 06:16:51;;;;;;;3.90;3.08;;;23.10;89.60;;;;;;5076379;28;20024;-84
2021/05/13 06:19:18;;;;;;;4.38;3.33;;;23.10;89.60;;;;;;5076417;28;20508;-85
2021/05/13 06:21:44;;;;;;;4.57;3.30;;;23.10;89.60;;;;;;5094540;28;20024;-85
2021/05/13 06:24:11;;;;;;;3.97;3.05;;;23.10;89.50;;;;;;5094239;28;20449;-84
2021/05/13 06:26:38;;;;;;;3.60;3.28;;;23.10;89.50;;;;;;5093253;28;20111;-84
2021/05/13 06:29:06;;;;;;;4.32;2.88;;;23.10;89.60;;;;;;5094233;28;20081;-85
2021/05/13 06:31:36;;;;;;;4.47;3.28;;;23.20;89.60;;;;;;5094625;28;20075;-84
2021/05/13 06:34:02;;;;;;;3.03;2.72;;;23.20;89.60;;;;;;5076258;28;20068;-86
2021/05/13 06:36:27;;;;;;;3.20;2.90;;;23.20;89.60;;;;;;5059445;28;20122;-86
2021/05/13 06:38:53;;;;;;;4.22;3.00;;;23.20;89.60;;;;;;5076789;28;20107;-83
2021/05/13 06:41:19;;;;;;;3.53;2.92;;;23.20;89.60;;;;;;5093991;28;20038;-84
2021/05/13 06:43:45;;;;;;;3.10;2.80;;;23.20;89.60;;;;;;5094449;28;20096;-86
2021/05/13 06:46:11;;;;;;;3.60;3.10;;;23.20;89.60;;;;;;5076101;28;20028;-85
2021/05/13 06:48:37;;;;;;;3.75;2.90;;;23.20;89.60;;;;;;5059647;28;20358;-85
2021/05/13 06:51:04;;;;;;;3.88;2.72;;;23.20;89.60;;;;;;5094279;28;20027;-86
2021/05/13 06:53:30;;;;;;;3.80;2.90;;;23.20;89.60;;;;;;5094833;28;20050;-88
2021/05/13 06:55:56;;;;;;;3.45;2.80;;;23.20;89.60;;;;;;5076000;28;20107;-86
2021/05/13 06:58:22;;;;;;;3.08;2.78;;;23.20;89.60;;;;;;5093904;28;20020;-85
2021/05/13 07:00:48;;;;;;;3.22;2.90;;;23.30;89.60;;;;;;5094419;28;20469;-85
2021/05/13 07:03:14;;;;;;;3.55;2.65;;;23.20;89.60;;;;;;5075958;28;20024;-85
2021/05/13 07:05:41;;;;;;;4.18;2.88;;;23.20;89.60;;;;;;5093855;28;20107;-84
2021/05/13 07:08:09;;;;;;;2.90;2.50;;;23.20;89.60;;;;;;5093899;28;20115;-85
2021/05/13 07:10:38;;;;;;;3.05;2.75;;;23.30;89.70;;;;;;5075782;28;20064;-85
2021/05/13 07:13:04;;;;;;;2.78;2.22;;;23.20;89.60;;;;;;5075913;28;20091;-85
2021/05/13 07:15:31;;;;;;;3.05;2.53;;;23.30;89.60;;;;;;5075692;28;20028;-85
2021/05/13 07:17:57;;;;;;;2.70;2.50;;;23.30;89.60;;;;;;5075336;28;20408;-85
2021/05/13 07:20:23;;;;;;;2.78;2.50;;;23.30;89.60;;;;;;5075576;28;20028;-85
2021/05/13 07:22:50;;;;;;;3.42;2.53;;;23.30;89.60;;;;;;5059126;28;20035;-86
2021/05/13 07:25:16;;;;;;;2.80;2.38;;;23.30;89.60;;;;;;5093459;28;20051;-83
2021/05/13 07:27:43;;;;;;;3.05;2.35;;;23.30;89.60;;;;;;5092704;28;20040;-85
2021/05/13 07:30:10;;;;;;;2.60;2.33;;;23.30;89.60;;;;;;5059100;28;20051;-85
2021/05/13 07:32:36;;;;;;;2.72;2.17;;;23.30;89.60;;;;;;5075145;28;20441;-85
2021/05/13 07:35:02;;;;;;;2.13;1.92;;;23.30;89.60;;;;;;5093249;28;20129;-85
2021/05/13 07:37:28;;;;;;;3.67;2.90;;;23.30;89.60;;;;;;5054831;28;20094;-86
2021/05/13 07:39:53;;;;;;;2.40;2.17;;;23.40;89.70;;;;;;5071931;28;20032;-85
2021/05/13 07:42:19;;;;;;;2.75;2.35;;;23.30;89.60;;;;;;5038486;28;20110;-85
2021/05/13 07:44:44;;;;;;;2.20;2.00;;;23.30;89.60;;;;;;5055311;28;20021;-85
2021/05/13 07:47:11;;;;;;;2.92;2.20;;;23.30;89.70;;;;;;5071473;28;20055;-85
2021/05/13 07:49:37;;;;;;;2.10;1.90;;;23.40;89.70;;;;;;5072918;28;20047;-84
2021/05/13 07:52:03;;;;;;;2.83;2.20;;;23.40;89.70;;;;;;5071649;28;20024;-85
2021/05/13 07:54:29;;;;;;;2.70;2.38;;;23.30;89.70;;;;;;5072752;28;20024;-85
2021/05/13 07:56:54;;;;;;;2.47;2.08;;;23.30;89.70;;;;;;5073539;28;20051;-84
2021/05/13 07:59:20;;;;;;;2.95;2.40;;;23.40;89.70;;;;;;5072876;28;20473;-85
2021/05/13 08:01:45;;;;;;;2.40;2.00;;;23.40;90.10;;;;;;5071698;28;20351;-84
2021/05/13 08:04:11;;;;;;;2.53;1.85;;;23.40;89.70;;;;;;5072614;28;20021;-85
2021/05/13 08:06:37;;;;;;;2.33;1.85;;;23.40;89.70;;;;;;5072778;28;20039;-84
2021/05/13 08:09:03;;;;;;;2.28;1.92;;;23.40;89.80;;;;;;5071623;28;20028;-84
2021/05/13 08:11:29;;;;;;;2.20;1.95;;;23.40;89.80;;;;;;5071169;28;20033;-85
2021/05/13 08:13:54;;;;;;;1.90;1.55;;;23.40;89.80;;;;;;5072690;28;20029;-84
2021/05/13 08:16:20;;;;;;;1.67;1.58;;;23.40;89.80;;;;;;5071040;28;20028;-84
2021/05/13 08:18:46;;;;;;;2.28;2.00;;;23.40;89.80;;;;;;5071841;28;20024;-84
2021/05/13 08:21:11;;;;;;;2.35;2.15;;;23.40;89.80;;;;;;5054650;28;20063;-85
2021/05/13 08:23:37;;;;;;;2.22;1.85;;;23.40;89.80;;;;;;5071553;28;20036;-84
2021/05/13 08:26:03;;;;;;;1.90;1.60;;;23.40;89.80;;;;;;5071449;28;20356;-85
2021/05/13 08:28:29;;;;;;;2.53;1.60;;;23.40;89.80;;;;;;5070935;28;20025;-86
2021/05/13 08:30:54;;;;;;;1.90;1.48;;;23.40;89.80;;;;;;5071237;28;20033;-85
2021/05/13 08:33:20;;;;;;;2.25;1.48;;;23.40;89.80;;;;;;5054570;28;20025;-84
2021/05/13 08:35:45;;;;;;;1.67;1.58;;;23.40;89.80;;;;;;5072024;28;20112;-86
2021/05/13 08:38:11;;;;;;;1.70;1.55;;;23.40;89.80;;;;;;5090465;28;20496;-85
2021/05/13 08:40:37;;;;;;;1.35;1.13;;;23.40;89.80;;;;;;5077277;28;20060;-85
2021/05/13 08:43:03;;;;;;;1.70;1.30;;;23.40;89.80;;;;;;5096571;28;20024;-84
2021/05/13 08:45:33;;;;;;;3.35;1.88;;;23.40;89.80;;;;;;5078387;28;20023;-85
2021/05/13 08:48:01;;;;;;;1.60;1.35;;;23.40;89.80;;;;;;5078427;28;20107;-84
2021/05/13 08:50:27;;;;;;;1.35;1.25;;;23.40;89.80;;;;;;5095890;28;20074;-85
2021/05/13 08:52:55;;;;;;;1.13;1.00;;;23.40;89.80;;;;;;5096535;28;20013;-84
2021/05/13 08:55:21;;;;;;;1.23;1.00;;;23.40;89.80;;;;;;5096314;28;20081;-84
2021/05/13 08:57:47;;;;;;;1.38;1.13;;;23.40;90.10;;;;;;5096738;28;20408;-84
2021/05/13 09:00:13;;;;;;;1.58;1.13;;;23.40;89.90;;;;;;5095901;28;20587;-85
2021/05/13 09:02:49;;;;;;;1.20;1.10;;;23.40;89.90;;;;;;5096255;28;20457;-85
2021/05/13 09:05:14;;;;;;;0.80;0.80;;;23.50;89.90;;;;;;5096168;28;20085;-86
2021/05/13 09:07:40;;;;;;;1.15;1.05;;;23.40;89.90;;;;;;5061177;28;20461;-85
2021/05/13 09:10:11;;;;;;;1.13;0.82;;;23.40;89.90;;;;;;5096013;28;20043;-85
2021/05/13 09:12:49;;;;;;;1.00;0.90;;;23.50;90.00;;;;;;5095986;28;20028;-86
2021/05/13 09:15:23;;;;;;;1.15;0.77;;;23.40;89.90;;;;;;5095836;28;20048;-92
2021/05/13 09:17:51;;;;;;;1.05;0.80;;;23.50;90.00;;;;;;5095702;28;20154;-85
2021/05/13 09:20:38;;;;;;;1.20;0.88;;;23.50;90.00;;;;;;5077477;28;20523;-86
2021/05/13 09:23:13;;;;;;;1.25;0.90;;;23.50;90.00;;;;;;5095822;28;20028;-85
2021/05/13 09:25:39;;;;;;;;;;;23.50;90.00;;;;;;5096158;28;20073;-85
2021/05/13 09:28:07;;;;;;;0.65;0.65;;;23.40;89.90;;;;;;5095561;28;20462;-85
2021/05/13 09:30:32;;;;;;;0.70;0.70;;;23.50;90.00;;;;;;5077400;28;20040;-85
2021/05/13 09:33:00;;;;;;;0.65;0.60;;;23.40;90.00;;;;;;5077375;28;20354;-85
2021/05/13 09:35:32;;;;;;;0.95;0.85;;;23.40;89.90;;;;;;5095398;28;20030;-85
2021/05/13 09:38:00;;;;;;;0.90;0.80;;;23.50;89.90;;;;;;5077436;28;20051;-85
2021/05/13 09:40:50;;;;;;;0.60;0.60;;;23.50;89.90;;;;;;5076968;28;20028;-85
2021/05/13 09:43:16;;;;;;;0.60;0.60;;;23.50;89.90;;;;;;5095318;28;20043;-86
2021/05/13 09:45:43;;;;;;;1.02;0.70;;;23.50;89.90;;;;;;5095155;28;20449;-85
2021/05/13 09:48:08;;;;;;;0.90;0.70;;;23.50;89.90;;;;;;5077301;28;20020;-84
2021/05/13 09:50:34;;;;;;;0.65;0.65;;;23.50;89.90;;;;;;5094324;28;20378;-85
2021/05/13 09:53:01;;;;;;;0.60;0.60;;;23.60;89.90;;;;;;5076879;28;20020;-85
2021/05/13 09:55:32;;;;;;;0.85;0.68;;;23.50;89.90;;;;;;5044038;28;20031;-84
2021/05/13 09:58:05;;;;;;;0.47;0.47;;;23.60;89.90;;;;;;5077026;28;20020;-85
2021/05/13 10:00:41;;;;;;;0.60;0.60;;;23.60;89.90;;;;;;5094977;28;20028;-84
2021/05/13 10:03:13;;;;;;;0.43;0.40;;;23.60;89.90;;;;;;5076890;28;20024;-85
2021/05/13 10:05:41;;;;;;;0.50;0.50;;;23.60;89.90;;;;;;5094704;28;20063;-84
2021/05/13 10:08:08;;;;;;;0.35;0.35;;;23.60;89.90;;;;;;5077030;28;20036;-84
2021/05/13 10:10:35;;;;;;;0.60;0.60;;;23.60;89.80;;;;;;5076528;28;20119;-85
2021/05/13 10:13:01;;;;;;;0.40;0.40;;;23.60;89.80;;;;;;5076925;28;20028;-85
2021/05/13 10:15:27;;;;;;;0.32;0.32;;;23.60;89.80;;;;;;5060250;28;20097;-85
2021/05/13 10:17:57;;;;;;;0.45;0.45;;;23.60;89.80;;;;;;5076875;28;20454;-85
2021/05/13 10:20:27;;;;;;;0.40;0.40;;;23.60;89.80;;;;;;5094621;28;20032;-86
2021/05/13 10:22:54;;;;;;;0.40;0.40;;;23.60;89.80;;;;;;5076652;28;20457;-85
2021/05/13 10:25:24;;;;;;;0.30;0.30;;;23.60;89.70;;;;;;5094645;28;20025;-84
2021/05/13 10:28:01;;;;;;;0.50;0.50;;;23.60;89.60;;;;;;5076172;28;20095;-85
2021/05/13 10:30:29;;;;;;;0.40;0.40;;;23.70;89.70;;;;;;5093947;28;20028;-85
2021/05/13 10:33:10;;;;;;;0.40;0.40;;;23.60;89.60;;;;;;5093775;28;20065;-85
2021/05/13 10:35:37;;;;;;;0.40;0.40;;;23.60;89.60;;;;;;5087616;28;20025;-85
2021/05/13 10:38:09;;;;;;;0.30;0.30;;;23.60;89.60;;;;;;5075987;28;20077;-84
2021/05/13 10:43:09;;;;;;;0.50;0.50;;;23.70;89.70;;;;;;5093980;28;20024;-85
2021/05/13 10:45:36;;;;;;;0.55;0.40;;;23.60;89.70;;;;;;5092780;28;20024;-85
2021/05/13 10:48:21;;;;;;;0.40;0.40;;;23.70;89.80;;;;;;5092860;28;20049;-84
2021/05/13 10:50:48;;;;;;;0.50;0.50;;;23.70;89.70;;;;;;5094754;28;20456;-84
2021/05/13 10:53:46;;;;;;;0.60;0.60;;;23.70;89.70;;;;;;5094208;28;20103;-84
2021/05/13 10:56:38;;;;;;;0.60;0.50;;;23.70;89.60;;;;;;5094205;28;20051;-85
2021/05/13 10:59:09;;;;;;;0.50;0.50;;;23.60;89.60;;;;;;5089970;28;20044;-85
2021/05/13 11:01:38;;;;;;;0.40;0.40;;;23.60;89.60;;;;;;5094105;28;20024;-85
2021/05/13 11:04:26;;;;;;;1.00;0.50;;;23.60;89.70;;;;;;5092297;28;20347;-85
2021/05/13 11:06:58;;;;;;;0.57;0.57;;;23.60;89.60;;;;;;5092869;28;20047;-85
2021/05/13 11:09:39;;;;;;;0.50;0.50;;;23.60;89.70;;;;;;5076084;28;20382;-85
2021/05/13 11:12:12;;;;;;;0.52;0.50;;;23.60;89.60;;;;;;5092199;28;20043;-85
2021/05/13 11:20:29;;;;;;;0.45;0.45;;;23.70;89.80;;;;;;5093801;28;20024;-84
2021/05/13 11:23:19;;;;;;;0.38;0.38;;;23.60;89.70;;;;;;5093773;28;20805;-84
2021/05/13 11:25:54;;;;;;;0.43;0.43;;;23.70;89.80;;;;;;5093625;28;20020;-86
2021/05/13 11:28:39;;;;;;;;;;;23.60;89.70;;;;;;5094215;28;20039;-84
2021/05/13 11:31:06;;;;;;;0.30;0.30;;;23.70;89.70;;;;;;5093463;28;20334;-84
2021/05/13 11:33:46;;;;;;;0.40;0.40;;;23.60;89.80;;;;;;5093556;28;20043;-84
2021/05/13 11:36:23;;;;;;;0.65;0.50;;;23.60;89.80;;;;;;5093277;28;20028;-84
2021/05/13 11:38:52;;;;;;;0.47;0.30;;;23.60;89.80;;;;;;5091770;28;20032;-84
2021/05/13 11:41:18;;;;;;;0.40;0.40;;;23.60;89.70;;;;;;5093107;28;20027;-84
2021/05/13 11:43:45;;;;;;;0.40;0.40;;;23.60;89.70;;;;;;5093627;28;20446;-84
2021/05/13 11:46:11;;;;;;;0.40;0.40;;;23.60;89.70;;;;;;5091512;28;20024;-86
2021/05/13 11:48:40;;;;;;;0.55;0.50;;;23.60;89.60;;;;;;5090526;28;20024;-84
2021/05/13 11:51:11;;;;;;;0.73;0.50;;;23.70;89.70;;;;;;5093284;28;20028;-84
2021/05/13 11:53:39;;;;;;;0.50;0.50;;;23.70;89.70;;;;;;5093539;28;20024;-84
2021/05/13 11:56:06;;;;;;;0.90;0.65;;;23.70;89.70;;;;;;5093928;28;20099;-85
2021/05/13 11:58:45;;;;;;;0.50;0.50;;;23.70;90.00;;;;;;5092255;28;20424;-84
2021/05/13 12:01:31;;;;;;;0.68;0.60;;;23.70;89.70;;;;;;5093468;28;20027;-84
2021/05/13 12:03:56;;;;;;;0.95;0.65;;;23.70;89.70;;;;;;5093155;28;20020;-88
2021/05/13 12:06:23;;;;;;;1.52;0.80;;;23.70;89.70;;;;;;5092369;28;20027;-87
2021/05/13 12:08:49;;;;;;;1.73;1.30;;;23.70;89.80;;;;;;5093120;28;20020;-86
2021/05/13 12:11:22;;;;;;;1.20;1.10;;;23.70;90.10;;;;;;5093416;28;20028;-86
2021/05/13 12:13:52;;;;;;;2.03;1.55;;;23.70;89.80;;;;;;5094299;28;20110;-91
2021/05/13 12:16:20;;;;;;;3.25;1.65;;;23.70;89.80;;;;;;5098116;28;20027;-87
2021/05/13 12:18:48;;;;;;;4.05;2.00;;;23.70;89.80;;;;;;5096536;28;20030;-88
2021/05/13 12:21:17;;;;;;;2.22;1.73;;;23.70;89.80;;;;;;5096233;28;20030;-84
2021/05/13 12:23:45;;;;;;;3.17;2.13;;;23.70;89.80;;;;;;5097537;28;20031;-85
2021/05/13 12:26:13;;;;;;;3.65;2.10;;;23.70;89.80;;;;;;5079448;28;20035;-85
2021/05/13 12:28:42;;;;;;;3.38;2.17;;;23.70;89.80;;;;;;5097005;28;20047;-85
2021/05/13 12:31:07;;;;;;;4.20;2.45;;;23.80;89.90;;;;;;5097341;28;20035;-84
2021/05/13 12:33:39;;;;;;;3.85;2.50;;;23.70;89.80;;;;;;5096126;28;20028;-85
2021/05/13 12:36:11;;;;;;;4.57;2.58;;;23.80;89.80;;;;;;5097360;28;20035;-84
2021/05/13 12:38:42;;;;;;;5.68;3.08;;;23.80;89.80;;;;;;5093192;28;20059;-84
2021/05/13 12:41:20;;;;;;;5.55;3.40;;;23.80;89.80;;;;;;5096037;28;20384;-84
2021/05/13 12:43:48;;;;;;;5.20;2.97;;;23.80;89.70;;;;;;5095478;28;20020;-84
2021/05/13 12:46:25;;;;;;;4.60;3.08;;;23.80;89.70;;;;;;5097559;28;20038;-84
2021/05/13 12:48:52;;;;;;;4.45;3.03;;;23.80;89.60;;;;;;5095772;28;20024;-84
2021/05/13 12:51:21;;;;;;;5.45;2.97;;;23.80;89.60;;;;;;5094658;28;20040;-85
2021/05/13 12:53:54;;;;;;;5.40;3.20;;;23.80;89.60;;;;;;5095520;28;20042;-85
2021/05/13 12:56:34;;;;;;;5.32;3.05;;;23.80;89.60;;;;;;5093564;28;20115;-86
2021/05/13 12:59:11;;;;;;;5.53;3.47;;;23.80;89.50;;;;;;5095602;28;20024;-86
2021/05/13 13:01:41;;;;;;;5.47;3.20;;;23.80;89.60;;;;;;5095841;28;20024;-85
2021/05/13 13:04:10;;;;;;;5.50;3.42;;;23.80;89.60;;;;;;5095749;28;20165;-85
2021/05/13 13:06:47;;;;;;;6.07;3.97;;;23.80;89.50;;;;;;5094305;28;20016;-86
2021/05/13 13:09:37;;;;;;;6.35;3.33;;;23.80;89.50;;;;;;5095756;28;20020;-87
2021/05/13 13:17:35;;;;;;;4.85;3.17;;;23.80;89.40;;;;;;5619146;23;20045;-84